C6025 KPIE-
Flight info
| Callsign | C6025 |
|---|---|
| Flight time | N/A |
| Altitude | VFR/010 |
| Route | VFR N |
| Aircraft | H60/M-DOV/C |
Departure
| Time | 2026-04-22 00:36 |
|---|---|
| Airport | St. Petersburg Clearwater International Airport (KPIE) |
Arrival
| Time | N/A |
|---|---|
| Airport | - |
| Time | Latitude | Longitude | Altitude | Speed | Heading |
|---|---|---|---|---|---|
| 2026-04-22 00:34 | 27.91304 | -82.69474 | 19 ft | 0 kts | 127° |
| 2026-04-22 00:35 | 27.91306 | -82.69470 | 66 ft | 1 kts | 118° |
| 2026-04-22 00:35 | 27.91306 | -82.69469 | 128 ft | 1 kts | 354° |
| 2026-04-22 00:36 | 27.91321 | -82.69475 | 418 ft | 11 kts | 351° |
| 2026-04-22 00:36 | 27.91502 | -82.69572 | 674 ft | 43 kts | 342° |
| 2026-04-22 00:36 | 27.91891 | -82.69715 | 871 ft | 74 kts | 345° |
| 2026-04-22 00:36 | 27.92493 | -82.69950 | 895 ft | 102 kts | 348° |
| 2026-04-22 00:37 | 27.93184 | -82.70227 | 946 ft | 107 kts | 351° |
| 2026-04-22 00:37 | 27.93921 | -82.70483 | 928 ft | 115 kts | 353° |
| 2026-04-22 00:37 | 27.94707 | -82.70733 | 1095 ft | 122 kts | 353° |
| 2026-04-22 00:37 | 27.95490 | -82.70947 | 1026 ft | 107 kts | 4° |
| 2026-04-22 00:38 | 27.95962 | -82.70709 | 1112 ft | 68 kts | 77° |
| 2026-04-22 00:38 | 27.96037 | -82.70166 | 1072 ft | 73 kts | 84° |
| 2026-04-22 00:38 | 27.96105 | -82.69548 | 1158 ft | 87 kts | 82° |
| 2026-04-22 00:38 | 27.96211 | -82.68807 | 1084 ft | 102 kts | 82° |
| 2026-04-22 00:39 | 27.96318 | -82.67947 | 997 ft | 112 kts | 84° |
| 2026-04-22 00:39 | 27.96443 | -82.67088 | 947 ft | 110 kts | 82° |
| 2026-04-22 00:39 | 27.96553 | -82.66224 | 966 ft | 112 kts | 84° |
| 2026-04-22 00:39 | 27.96671 | -82.65337 | 1076 ft | 115 kts | 83° |
| 2026-04-22 00:40 | 27.96787 | -82.64422 | 1054 ft | 123 kts | 83° |
| 2026-04-22 00:40 | 27.96910 | -82.63469 | 1068 ft | 120 kts | 83° |
| 2026-04-22 00:40 | 27.96995 | -82.62569 | 1131 ft | 111 kts | 81° |
| 2026-04-22 00:40 | 27.97087 | -82.61712 | 1160 ft | 109 kts | 83° |
| 2026-04-22 00:41 | 27.97199 | -82.60842 | 1153 ft | 112 kts | 83° |
| 2026-04-22 00:41 | 27.97295 | -82.59953 | 1136 ft | 116 kts | 84° |
| 2026-04-22 00:41 | 27.97285 | -82.59048 | 1184 ft | 114 kts | 94° |
| 2026-04-22 00:41 | 27.97189 | -82.58169 | 1192 ft | 111 kts | 95° |
| 2026-04-22 00:42 | 27.97118 | -82.57331 | 1163 ft | 101 kts | 91° |
| 2026-04-22 00:42 | 27.97093 | -82.56574 | 1162 ft | 93 kts | 91° |
| 2026-04-22 00:42 | 27.97079 | -82.55839 | 1148 ft | 94 kts | 90° |
| 2026-04-22 00:42 | 27.97092 | -82.55079 | 1106 ft | 100 kts | 90° |
| 2026-04-22 00:43 | 27.97096 | -82.54293 | 1141 ft | 98 kts | 92° |
| 2026-04-22 00:43 | 27.97072 | -82.53518 | 1179 ft | 99 kts | 91° |
| 2026-04-22 00:43 | 27.97038 | -82.52739 | 1188 ft | 95 kts | 91° |
| 2026-04-22 00:43 | 27.97004 | -82.51983 | 1137 ft | 99 kts | 91° |
| 2026-04-22 00:44 | 27.96971 | -82.51172 | 1130 ft | 104 kts | 91° |
| 2026-04-22 00:44 | 27.96927 | -82.50357 | 1181 ft | 105 kts | 94° |
| 2026-04-22 00:44 | 27.96872 | -82.49519 | 1125 ft | 106 kts | 94° |
| 2026-04-22 00:44 | 27.96833 | -82.48716 | 1153 ft | 100 kts | 92° |
| 2026-04-22 00:45 | 27.96808 | -82.47956 | 1208 ft | 95 kts | 94° |
| 2026-04-22 00:45 | 27.96757 | -82.47209 | 1223 ft | 95 kts | 93° |
| 2026-04-22 00:45 | 27.96707 | -82.46476 | 1204 ft | 91 kts | 93° |
| 2026-04-22 00:45 | 27.96664 | -82.45757 | 1206 ft | 93 kts | 94° |
| 2026-04-22 00:46 | 27.96628 | -82.45027 | 1167 ft | 96 kts | 91° |
| 2026-04-22 00:46 | 27.96596 | -82.44236 | 1110 ft | 106 kts | 94° |
| 2026-04-22 00:46 | 27.96581 | -82.43405 | 1054 ft | 104 kts | 90° |
| 2026-04-22 00:46 | 27.96576 | -82.42590 | 1060 ft | 102 kts | 90° |
| 2026-04-22 00:47 | 27.96557 | -82.41782 | 1061 ft | 101 kts | 93° |
| 2026-04-22 00:47 | 27.96471 | -82.41027 | 1096 ft | 92 kts | 98° |
| 2026-04-22 00:47 | 27.96364 | -82.40289 | 1164 ft | 99 kts | 98° |
| 2026-04-22 00:47 | 27.96310 | -82.39521 | 1206 ft | 96 kts | 93° |
| 2026-04-22 00:48 | 27.96279 | -82.38711 | 1164 ft | 110 kts | 94° |
| 2026-04-22 00:48 | 27.96271 | -82.37823 | 1049 ft | 112 kts | 91° |
| 2026-04-22 00:48 | 27.96265 | -82.36964 | 1141 ft | 99 kts | 92° |
| 2026-04-22 00:48 | 27.96259 | -82.36145 | 1119 ft | 116 kts | 91° |
| 2026-04-22 00:49 | 27.96232 | -82.35233 | 1168 ft | 116 kts | 92° |
| 2026-04-22 00:49 | 27.96186 | -82.34318 | 1142 ft | 119 kts | 93° |
| 2026-04-22 00:49 | 27.96108 | -82.33391 | 1191 ft | 120 kts | 100° |
| 2026-04-22 00:49 | 27.95903 | -82.32457 | 1149 ft | 119 kts | 97° |
| 2026-04-22 00:50 | 27.95814 | -82.31547 | 1190 ft | 112 kts | 96° |
| 2026-04-22 00:50 | 27.95723 | -82.30696 | 1177 ft | 107 kts | 97° |
| 2026-04-22 00:50 | 27.95629 | -82.29846 | 1172 ft | 110 kts | 97° |
| 2026-04-22 00:50 | 27.95541 | -82.28966 | 1173 ft | 114 kts | 96° |
| 2026-04-22 00:51 | 27.95474 | -82.28090 | 1152 ft | 108 kts | 93° |
| 2026-04-22 00:51 | 27.95431 | -82.27261 | 1185 ft | 105 kts | 92° |
| 2026-04-22 00:51 | 27.95411 | -82.26442 | 1179 ft | 104 kts | 90° |
| 2026-04-22 00:51 | 27.95415 | -82.25612 | 1157 ft | 107 kts | 90° |
| 2026-04-22 00:52 | 27.95421 | -82.24776 | 1180 ft | 106 kts | 90° |
| 2026-04-22 00:52 | 27.95401 | -82.23930 | 1205 ft | 109 kts | 91° |
| 2026-04-22 00:52 | 27.95392 | -82.23084 | 1202 ft | 107 kts | 89° |
| 2026-04-22 00:52 | 27.95395 | -82.22226 | 1233 ft | 111 kts | 88° |
| 2026-04-22 00:53 | 27.95401 | -82.21359 | 1227 ft | 106 kts | 89° |
| 2026-04-22 00:53 | 27.95421 | -82.20445 | 1170 ft | 126 kts | 90° |
| 2026-04-22 00:53 | 27.95418 | -82.19489 | 1217 ft | 115 kts | 91° |
| 2026-04-22 00:53 | 27.95425 | -82.18627 | 1234 ft | 107 kts | 89° |
| 2026-04-22 00:54 | 27.95458 | -82.17807 | 1273 ft | 100 kts | 86° |
| 2026-04-22 00:54 | 27.95521 | -82.16985 | 1171 ft | 118 kts | 86° |
| 2026-04-22 00:54 | 27.95596 | -82.16098 | 1078 ft | 104 kts | 85° |
| 2026-04-22 00:54 | 27.95682 | -82.15298 | 1147 ft | 85 kts | 83° |
| 2026-04-22 00:55 | 27.95752 | -82.14618 | 1163 ft | 83 kts | 85° |
| 2026-04-22 00:55 | 27.95789 | -82.13994 | 1142 ft | 80 kts | 87° |
| 2026-04-22 00:55 | 27.95989 | -82.12768 | 1134 ft | 84 kts | 77° |
| 2026-04-22 00:56 | 27.96120 | -82.12072 | 1142 ft | 89 kts | 84° |
| 2026-04-22 00:56 | 27.96171 | -82.11393 | 1134 ft | 88 kts | 86° |
| 2026-04-22 00:56 | 27.96240 | -82.10721 | 1207 ft | 86 kts | 83° |
| 2026-04-22 00:56 | 27.96319 | -82.10018 | 1160 ft | 93 kts | 78° |
| 2026-04-22 00:57 | 27.96371 | -82.09323 | 1151 ft | 86 kts | 80° |
| 2026-04-22 00:57 | 27.96411 | -82.08675 | 1093 ft | 77 kts | 78° |
| 2026-04-22 00:57 | 27.96439 | -82.08073 | 1144 ft | 76 kts | 86° |
| 2026-04-22 00:57 | 27.96498 | -82.07477 | 1145 ft | 77 kts | 81° |
| 2026-04-22 00:58 | 27.96659 | -82.06877 | 1076 ft | 81 kts | 68° |
| 2026-04-22 00:58 | 27.96820 | -82.06291 | 1020 ft | 74 kts | 65° |
| 2026-04-22 00:58 | 27.96967 | -82.05753 | 1023 ft | 71 kts | 64° |
| 2026-04-22 00:58 | 27.97125 | -82.05229 | 966 ft | 70 kts | 68° |
| 2026-04-22 00:59 | 27.97332 | -82.04720 | 886 ft | 71 kts | 67° |
| 2026-04-22 00:59 | 27.97571 | -82.04238 | 866 ft | 66 kts | 63° |
| 2026-04-22 00:59 | 27.97803 | -82.03797 | 732 ft | 70 kts | 62° |
| 2026-04-22 00:59 | 27.98057 | -82.03307 | 597 ft | 71 kts | 65° |
| 2026-04-22 01:00 | 27.98235 | -82.02810 | 469 ft | 66 kts | 80° |
| 2026-04-22 01:00 | 27.98322 | -82.02325 | 390 ft | 60 kts | 82° |
| 2026-04-22 01:00 | 27.98378 | -82.01882 | 366 ft | 53 kts | 88° |
| 2026-04-22 01:00 | 27.98413 | -82.01504 | 336 ft | 44 kts | 83° |
| 2026-04-22 01:01 | 27.98440 | -82.01199 | 275 ft | 33 kts | 83° |
| 2026-04-22 01:01 | 27.98456 | -82.01056 | 229 ft | 5 kts | 13° |
| 2026-04-22 01:01 | 27.98475 | -82.01046 | 159 ft | 2 kts | 276° |
| 2026-04-22 01:03 | 27.98475 | -82.01047 | 144 ft | 1 kts | 272° |
| 2026-04-22 01:03 | 27.98471 | -82.01071 | 144 ft | 5 kts | 251° |
| 2026-04-22 01:04 | 27.98444 | -82.01098 | 144 ft | 8 kts | 192° |
| 2026-04-22 01:04 | 27.98407 | -82.01127 | 144 ft | 6 kts | 235° |
| 2026-04-22 01:04 | 27.98377 | -82.01176 | 144 ft | 8 kts | 239° |
| 2026-04-22 01:04 | 27.98356 | -82.01223 | 144 ft | 7 kts | 247° |
| 2026-04-22 01:05 | 27.98340 | -82.01276 | 144 ft | 8 kts | 265° |
| 2026-04-22 01:05 | 27.98336 | -82.01340 | 144 ft | 5 kts | 273° |
| 2026-04-22 01:05 | 27.98332 | -82.01392 | 144 ft | 8 kts | 267° |
| 2026-04-22 01:05 | 27.98330 | -82.01461 | 144 ft | 9 kts | 269° |
| 2026-04-22 01:06 | 27.98329 | -82.01536 | 144 ft | 9 kts | 271° |
| 2026-04-22 01:06 | 27.98328 | -82.01607 | 144 ft | 9 kts | 269° |
| 2026-04-22 01:06 | 27.98327 | -82.01674 | 144 ft | 9 kts | 268° |
| 2026-04-22 01:06 | 27.98326 | -82.01739 | 144 ft | 8 kts | 272° |
| 2026-04-22 01:07 | 27.98325 | -82.01810 | 144 ft | 11 kts | 268° |
| 2026-04-22 01:07 | 27.98322 | -82.01908 | 144 ft | 12 kts | 272° |
| 2026-04-22 01:07 | 27.98327 | -82.01993 | 145 ft | 7 kts | 291° |
| 2026-04-22 01:07 | 27.98341 | -82.02010 | 145 ft | 3 kts | 352° |
| 2026-04-22 01:08 | 27.98376 | -82.02000 | 145 ft | 5 kts | 32° |
| 2026-04-22 01:08 | 27.98409 | -82.01967 | 145 ft | 8 kts | 47° |
| 2026-04-22 01:08 | 27.98434 | -82.01913 | 146 ft | 9 kts | 64° |
| 2026-04-22 01:08 | 27.98474 | -82.01861 | 146 ft | 8 kts | 45° |
| 2026-04-22 01:09 | 27.98492 | -82.01841 | 147 ft | 1 kts | 43° |
| 2026-04-22 01:09 | 27.98497 | -82.01836 | 151 ft | 1 kts | 311° |
| 2026-04-22 01:09 | 27.98503 | -82.01840 | 148 ft | 1 kts | 313° |
| 2026-04-22 01:41 | 27.98502 | -82.01840 | 147 ft | 1 kts | 312° |
| 2026-04-22 01:41 | 27.98494 | -82.01847 | 147 ft | 0 kts | 313° |
| 2026-04-22 02:12 | 27.98489 | -82.01870 | 146 ft | 5 kts | 243° |
| 2026-04-22 02:12 | 27.98457 | -82.01922 | 146 ft | 13 kts | 226° |
| 2026-04-22 02:13 | 27.98373 | -82.02017 | 145 ft | 10 kts | 229° |
| 2026-04-22 02:13 | 27.98370 | -82.02045 | 145 ft | 2 kts | 296° |
| 2026-04-22 02:13 | 27.98406 | -82.02090 | 144 ft | 13 kts | 320° |
| 2026-04-22 02:13 | 27.98443 | -82.02095 | 144 ft | 0 kts | 40° |
| 2026-04-22 02:14 | 27.98452 | -82.02088 | 144 ft | 5 kts | 37° |
| 2026-04-22 02:15 | 27.98497 | -82.02039 | 144 ft | 14 kts | 48° |
| 2026-04-22 02:15 | 27.98569 | -82.01960 | 144 ft | 8 kts | 44° |
| 2026-04-22 02:15 | 27.98581 | -82.01946 | 144 ft | 6 kts | 45° |
| 2026-04-22 02:15 | 27.98654 | -82.01864 | 144 ft | 16 kts | 44° |
| 2026-04-22 02:16 | 27.98712 | -82.01806 | 144 ft | 0 kts | 358° |
| 2026-04-22 02:16 | 27.98744 | -82.01817 | 152 ft | 14 kts | 286° |
| 2026-04-22 02:16 | 27.98746 | -82.02043 | 156 ft | 42 kts | 275° |
| 2026-04-22 02:17 | 27.98810 | -82.02406 | 157 ft | 51 kts | 282° |
| 2026-04-22 02:17 | 27.98816 | -82.02821 | 153 ft | 49 kts | 275° |
| 2026-04-22 02:17 | 27.98818 | -82.03090 | 147 ft | 19 kts | 274° |
| 2026-04-22 02:17 | 27.98817 | -82.03185 | 154 ft | 10 kts | 276° |
| 2026-04-22 02:18 | 27.98816 | -82.03276 | 150 ft | 12 kts | 277° |
| 2026-04-22 02:18 | 27.98839 | -82.03345 | 157 ft | 15 kts | 355° |
| 2026-04-22 02:18 | 27.98926 | -82.03326 | 155 ft | 9 kts | 93° |
| 2026-04-22 02:18 | 27.98923 | -82.03247 | 157 ft | 12 kts | 92° |
| 2026-04-22 02:19 | 27.98923 | -82.03062 | 165 ft | 47 kts | 95° |
| 2026-04-22 02:19 | 27.98918 | -82.02481 | 213 ft | 93 kts | 95° |
| 2026-04-22 02:19 | 27.98927 | -82.01615 | 240 ft | 121 kts | 88° |
| 2026-04-22 02:19 | 27.98931 | -82.00621 | 423 ft | 129 kts | 91° |
| 2026-04-22 02:20 | 27.99104 | -81.99587 | 777 ft | 144 kts | 65° |
| 2026-04-22 02:20 | 27.99938 | -81.99035 | 938 ft | 142 kts | 354° |
| 2026-04-22 02:20 | 28.00542 | -81.99908 | 1171 ft | 165 kts | 289° |
| 2026-04-22 02:20 | 28.00830 | -82.01239 | 1364 ft | 183 kts | 281° |
| 2026-04-22 02:21 | 28.01075 | -82.02730 | 1319 ft | 189 kts | 272° |
| 2026-04-22 02:21 | 28.00995 | -82.04178 | 1551 ft | 193 kts | 263° |
| 2026-04-22 02:21 | 28.00906 | -82.05745 | 1478 ft | 203 kts | 269° |
| 2026-04-22 02:21 | 28.00917 | -82.07357 | 1464 ft | 204 kts | 272° |
| 2026-04-22 02:22 | 28.00904 | -82.08953 | 1488 ft | 201 kts | 270° |
| 2026-04-22 02:22 | 28.00902 | -82.10475 | 1405 ft | 182 kts | 271° |
| 2026-04-22 02:22 | 28.00885 | -82.11875 | 1437 ft | 175 kts | 270° |
| 2026-04-22 02:22 | 28.00870 | -82.13251 | 1426 ft | 175 kts | 270° |
| 2026-04-22 02:23 | 28.00854 | -82.14649 | 1417 ft | 179 kts | 271° |
| 2026-04-22 02:23 | 28.00846 | -82.16061 | 1374 ft | 176 kts | 270° |
| 2026-04-22 02:23 | 28.00856 | -82.17401 | 1413 ft | 170 kts | 270° |
| 2026-04-22 02:23 | 28.00850 | -82.18782 | 1384 ft | 176 kts | 270° |
| 2026-04-22 02:24 | 28.00843 | -82.20123 | 1409 ft | 173 kts | 269° |
| 2026-04-22 02:24 | 28.00834 | -82.21465 | 1397 ft | 169 kts | 269° |
| 2026-04-22 02:24 | 28.00821 | -82.22806 | 1424 ft | 169 kts | 270° |
| 2026-04-22 02:24 | 28.00805 | -82.24127 | 1433 ft | 164 kts | 269° |
| 2026-04-22 02:25 | 28.00765 | -82.25454 | 1396 ft | 170 kts | 266° |
| 2026-04-22 02:25 | 28.00744 | -82.26832 | 1392 ft | 177 kts | 269° |
| 2026-04-22 02:25 | 28.00720 | -82.28200 | 1438 ft | 174 kts | 265° |
| 2026-04-22 02:25 | 28.00689 | -82.29580 | 1413 ft | 176 kts | 267° |
| 2026-04-22 02:26 | 28.00670 | -82.30951 | 1432 ft | 171 kts | 268° |
| 2026-04-22 02:26 | 28.00648 | -82.32254 | 1386 ft | 169 kts | 268° |
| 2026-04-22 02:26 | 28.00621 | -82.33568 | 1374 ft | 165 kts | 268° |
| 2026-04-22 02:26 | 28.00596 | -82.34840 | 1402 ft | 164 kts | 270° |
| 2026-04-22 02:27 | 28.00558 | -82.36093 | 1424 ft | 160 kts | 265° |
| 2026-04-22 02:27 | 28.00194 | -82.37200 | 1421 ft | 147 kts | 237° |
| 2026-04-22 02:27 | 27.99367 | -82.37926 | 1490 ft | 150 kts | 211° |
| 2026-04-22 02:27 | 27.98526 | -82.38661 | 1470 ft | 153 kts | 215° |
| 2026-04-22 02:28 | 27.97711 | -82.39425 | 1532 ft | 154 kts | 214° |
| 2026-04-22 02:28 | 27.96871 | -82.40248 | 1518 ft | 161 kts | 215° |
| 2026-04-22 02:28 | 27.96039 | -82.41060 | 1538 ft | 156 kts | 214° |
| 2026-04-22 02:28 | 27.95191 | -82.41881 | 1525 ft | 163 kts | 214° |
| 2026-04-22 02:29 | 27.94333 | -82.42713 | 1515 ft | 159 kts | 213° |
| 2026-04-22 02:29 | 27.93535 | -82.43466 | 1360 ft | 131 kts | 208° |
| 2026-04-22 02:29 | 27.92830 | -82.44087 | 1563 ft | 145 kts | 209° |
| 2026-04-22 02:29 | 27.91951 | -82.44989 | 1455 ft | 187 kts | 212° |
| 2026-04-22 02:30 | 27.90935 | -82.45927 | 1498 ft | 184 kts | 213° |
| 2026-04-22 02:30 | 27.90054 | -82.46767 | 1508 ft | 159 kts | 213° |
| 2026-04-22 02:30 | 27.89205 | -82.47589 | 1492 ft | 159 kts | 214° |
| 2026-04-22 02:30 | 27.88362 | -82.48421 | 1484 ft | 162 kts | 214° |
| 2026-04-22 02:31 | 27.87530 | -82.49218 | 1480 ft | 154 kts | 213° |
| 2026-04-22 02:31 | 27.86705 | -82.50015 | 1488 ft | 164 kts | 214° |
| 2026-04-22 02:31 | 27.85866 | -82.50840 | 1513 ft | 159 kts | 215° |
| 2026-04-22 02:31 | 27.85027 | -82.51658 | 1483 ft | 157 kts | 213° |
| 2026-04-22 02:32 | 27.84174 | -82.52470 | 1515 ft | 161 kts | 214° |
| 2026-04-22 02:32 | 27.83304 | -82.53296 | 1578 ft | 171 kts | 213° |
| 2026-04-22 02:32 | 27.82398 | -82.54159 | 1465 ft | 166 kts | 214° |
| 2026-04-22 02:32 | 27.81525 | -82.55016 | 1477 ft | 167 kts | 214° |
| 2026-04-22 02:33 | 27.80735 | -82.55954 | 1469 ft | 172 kts | 235° |
| 2026-04-22 02:33 | 27.80645 | -82.57292 | 1494 ft | 177 kts | 282° |
| 2026-04-22 02:33 | 27.80874 | -82.58616 | 1485 ft | 169 kts | 279° |
| 2026-04-22 02:33 | 27.80978 | -82.59972 | 1467 ft | 176 kts | 275° |
| 2026-04-22 02:34 | 27.81061 | -82.61341 | 1532 ft | 175 kts | 274° |
| 2026-04-22 02:34 | 27.81141 | -82.62710 | 1541 ft | 174 kts | 273° |
| 2026-04-22 02:34 | 27.81220 | -82.64090 | 1542 ft | 175 kts | 272° |
| 2026-04-22 02:34 | 27.81312 | -82.65464 | 1489 ft | 179 kts | 274° |
| 2026-04-22 02:35 | 27.81412 | -82.66770 | 1511 ft | 162 kts | 276° |
| 2026-04-22 02:35 | 27.81889 | -82.67866 | 1459 ft | 152 kts | 327° |
| 2026-04-22 02:35 | 27.82817 | -82.68336 | 1535 ft | 146 kts | 341° |
| 2026-04-22 02:35 | 27.83751 | -82.68629 | 1413 ft | 140 kts | 8° |
| 2026-04-22 02:36 | 27.84747 | -82.68487 | 1151 ft | 145 kts | 16° |
| 2026-04-22 02:36 | 27.85733 | -82.68259 | 938 ft | 142 kts | 17° |
| 2026-04-22 02:36 | 27.86756 | -82.68159 | 557 ft | 156 kts | 5° |
| 2026-04-22 02:36 | 27.87820 | -82.68302 | 376 ft | 149 kts | 358° |
| 2026-04-22 02:37 | 27.88820 | -82.68495 | 277 ft | 142 kts | 356° |
| 2026-04-22 02:37 | 27.89776 | -82.68670 | 112 ft | 138 kts | 357° |
| 2026-04-22 02:37 | 27.90717 | -82.68824 | 85 ft | 139 kts | 358° |
| 2026-04-22 02:37 | 27.91547 | -82.68957 | 53 ft | 71 kts | 353° |
| 2026-04-22 02:38 | 27.91716 | -82.68987 | 73 ft | 15 kts | 349° |
| 2026-04-22 02:38 | 27.91913 | -82.69000 | 35 ft | 43 kts | 350° |
| 2026-04-22 02:38 | 27.92228 | -82.69044 | 34 ft | 33 kts | 345° |
| 2026-04-22 02:38 | 27.92326 | -82.69118 | 30 ft | 14 kts | 257° |
| 2026-04-22 02:39 | 27.92249 | -82.69203 | 28 ft | 20 kts | 176° |
| 2026-04-22 02:39 | 27.92112 | -82.69187 | 27 ft | 19 kts | 172° |
| 2026-04-22 02:39 | 27.91909 | -82.69155 | 33 ft | 40 kts | 171° |
| 2026-04-22 02:39 | 27.91657 | -82.69109 | 39 ft | 32 kts | 169° |
| 2026-04-22 02:40 | 27.91470 | -82.69075 | 40 ft | 15 kts | 215° |
| 2026-04-22 02:40 | 27.91421 | -82.69141 | 34 ft | 19 kts | 218° |
| 2026-04-22 02:40 | 27.91314 | -82.69252 | 33 ft | 19 kts | 219° |
| 2026-04-22 02:40 | 27.91241 | -82.69326 | 31 ft | 11 kts | 242° |
| 2026-04-22 02:41 | 27.91242 | -82.69387 | 32 ft | 5 kts | 319° |
| 2026-04-22 02:41 | 27.91282 | -82.69451 | 33 ft | 13 kts | 294° |
| 2026-04-22 02:41 | 27.91306 | -82.69486 | 34 ft | 3 kts | 90° |
| 2026-04-22 02:41 | 27.91306 | -82.69479 | 27 ft | 2 kts | 133° |
| 2026-04-22 02:42 | 27.91307 | -82.69479 | 25 ft | 0 kts | 133° |